Time;durP1;ratioP1;P1;durP2;ratioP2;P2;SDS_P1;SDS_P2;PMS_P1;PMS_P2;Temp;Humidity;BMP_temperature;BMP_pressure;BME280_temperature;BME280_humidity;BME280_pressure;Samples;Min_cycle;Max_cycle;Signal;HPM_P1;HPM_P2
2022/07/18 00:01:23;;;;;;;8.77;4.38;;;;;;;18.66;64.09;101648.97;5014346;28;20490;-84
2022/07/18 00:03:49;;;;;;;11.10;4.63;;;;;;;18.57;64.45;101640.25;4997297;28;20129;-84
2022/07/18 00:06:16;;;;;;;12.32;4.82;;;;;;;18.54;64.47;101645.09;4993564;28;20137;-85
2022/07/18 00:08:42;;;;;;;12.18;4.57;;;;;;;18.47;64.19;101644.19;5008582;28;20112;-84
2022/07/18 00:11:09;;;;;;;12.05;5.05;;;;;;;18.46;64.75;101637.22;5014226;28;20053;-85
2022/07/18 00:13:36;;;;;;;9.00;4.75;;;;;;;18.48;64.62;101641.34;5014331;28;20084;-82
2022/07/18 00:16:02;;;;;;;7.20;4.57;;;;;;;18.51;64.95;101646.28;5014877;28;20128;-82
2022/07/18 00:18:30;;;;;;;15.80;5.32;;;;;;;18.40;65.58;101643.28;5014731;28;20132;-83
2022/07/18 00:20:57;;;;;;;9.65;4.63;;;;;;;18.38;65.93;101647.94;5015576;28;20049;-84
2022/07/18 00:23:23;;;;;;;12.95;5.78;;;;;;;18.25;66.19;101651.22;5013395;28;20056;-84
2022/07/18 00:25:50;;;;;;;16.15;5.03;;;;;;;18.23;66.44;101638.16;5014351;28;20217;-84
2022/07/18 00:28:17;;;;;;;15.52;4.65;;;;;;;18.15;66.82;101648.81;5015540;28;20057;-83
2022/07/18 00:30:44;;;;;;;12.95;5.65;;;;;;;18.17;67.15;101646.00;5015582;28;20113;-83
2022/07/18 00:33:10;;;;;;;8.45;4.40;;;;;;;18.14;66.81;101649.84;5016089;28;20084;-83
2022/07/18 00:35:38;;;;;;;11.60;4.75;;;;;;;18.10;66.80;101648.53;5013473;28;20077;-83
2022/07/18 00:38:05;;;;;;;12.70;4.95;;;;;;;18.10;66.93;101645.91;4996805;28;20077;-84
2022/07/18 00:40:32;;;;;;;10.82;4.80;;;;;;;18.08;67.07;101647.91;4996310;28;20050;-84
2022/07/18 00:42:59;;;;;;;7.97;4.35;;;;;;;18.07;67.42;101638.31;4998966;28;20078;-82
2022/07/18 00:45:26;;;;;;;10.35;4.38;;;;;;;18.15;67.00;101651.47;4997904;28;20058;-83
2022/07/18 00:47:53;;;;;;;9.55;4.88;;;;;;;18.12;67.29;101649.19;5001147;28;20158;-83
2022/07/18 00:50:20;;;;;;;10.93;5.22;;;;;;;18.10;67.49;101650.38;5013602;28;20116;-83
2022/07/18 00:52:49;;;;;;;8.13;4.70;;;;;;;18.00;67.65;101645.31;5019491;28;20074;-83
2022/07/18 00:55:16;;;;;;;11.90;4.78;;;;;;;17.88;68.43;101641.50;5015638;28;20054;-83
2022/07/18 00:57:43;;;;;;;9.45;4.38;;;;;;;17.77;68.45;101655.16;5013594;28;20046;-82
2022/07/18 01:02:58;;;;;;;8.05;4.50;;;;;;;17.72;68.86;101644.28;5022699;28;20129;-83
2022/07/18 01:05:25;;;;;;;11.20;5.35;;;;;;;17.72;69.18;101638.97;5019613;28;20113;-83
2022/07/18 01:07:53;;;;;;;9.63;4.72;;;;;;;17.77;67.13;101632.16;5010029;28;20054;-82
2022/07/18 01:10:20;;;;;;;11.93;5.10;;;;;;;17.84;66.80;101626.97;4999239;28;20077;-83
2022/07/18 01:12:47;;;;;;;10.52;4.63;;;;;;;17.83;66.15;101622.66;4998412;28;20209;-85
2022/07/18 01:15:14;;;;;;;10.55;4.60;;;;;;;17.85;66.37;101631.25;4997921;28;20057;-84
2022/07/18 01:17:41;;;;;;;7.22;4.43;;;;;;;17.82;67.35;101628.97;4998789;28;20086;-84
2022/07/18 01:20:08;;;;;;;8.27;4.35;;;;;;;17.74;67.55;101626.38;5011645;28;20088;-84
2022/07/18 01:22:38;;;;;;;10.70;4.72;;;;;;;17.66;67.61;101629.91;5023754;28;20045;-83
2022/07/18 01:25:06;;;;;;;7.85;4.60;;;;;;;17.61;67.97;101628.78;5019613;28;20076;-83
2022/07/18 01:27:33;;;;;;;8.55;4.30;;;;;;;17.54;68.17;101618.88;5018216;28;20045;-82
2022/07/18 01:29:59;;;;;;;10.15;4.55;;;;;;;17.49;68.00;101615.13;5019562;28;20050;-83
2022/07/18 01:32:26;;;;;;;11.25;4.80;;;;;;;17.47;67.70;101609.22;5018840;28;20085;-83
2022/07/18 01:34:53;;;;;;;6.47;4.35;;;;;;;17.40;67.82;101606.47;5018528;28;20084;-83
2022/07/18 01:37:20;;;;;;;7.72;4.20;;;;;;;17.48;67.48;101616.16;5013510;28;20100;-84
2022/07/18 01:39:48;;;;;;;8.38;4.13;;;;;;;17.46;67.48;101615.50;5008890;28;20081;-85
2022/07/18 01:42:15;;;;;;;8.80;4.20;;;;;;;17.51;67.00;101611.31;5016927;28;20133;-82
2022/07/18 01:44:43;;;;;;;7.80;4.47;;;;;;;17.49;66.29;101613.31;5017905;28;20085;-84
2022/07/18 01:47:12;;;;;;;6.75;3.92;;;;;;;17.51;66.44;101618.41;5014067;28;20134;-82
2022/07/18 01:49:39;;;;;;;11.10;4.03;;;;;;;17.46;67.13;101618.97;4997879;28;20078;-83
2022/07/18 01:52:07;;;;;;;6.03;3.97;;;;;;;17.51;65.99;101621.06;4998539;28;20134;-83
2022/07/18 01:54:35;;;;;;;7.47;4.00;;;;;;;17.46;66.59;101618.97;4997634;28;20431;-85
2022/07/18 01:57:05;;;;;;;6.63;4.40;;;;;;;17.38;67.08;101621.69;4999703;28;20101;-83
2022/07/18 01:59:32;;;;;;;13.80;4.40;;;;;;;17.31;67.76;101612.81;5017047;28;20137;-83
2022/07/18 02:01:59;;;;;;;8.98;4.32;;;;;;;17.21;68.09;101617.50;5017049;28;20144;-83
2022/07/18 02:04:59;;;;;;;7.60;4.47;;;;;;;17.26;68.30;101628.38;5018112;28;20081;-83
2022/07/18 02:07:12;;;;;;;6.25;4.20;;;;;;;17.18;68.56;101620.50;5017064;28;20450;-83
2022/07/18 02:09:39;;;;;;;9.35;4.55;;;;;;;17.13;69.17;101622.84;5017329;28;20569;-82
2022/07/18 02:12:08;;;;;;;6.65;4.38;;;;;;;17.08;69.27;101626.00;5017585;28;20201;-81
2022/07/18 02:14:37;;;;;;;9.02;4.40;;;;;;;17.10;69.15;101626.66;5019614;28;20081;-81
2022/07/18 02:17:03;;;;;;;7.15;4.20;;;;;;;17.09;69.39;101632.94;5011959;28;20089;-82
2022/07/18 02:19:30;;;;;;;8.40;4.70;;;;;;;17.07;69.96;101627.00;5014071;28;20081;-82
2022/07/18 02:21:57;;;;;;;6.30;4.55;;;;;;;17.03;70.09;101622.22;5022741;28;20073;-84
2022/07/18 02:24:24;;;;;;;13.10;4.63;;;;;;;16.99;70.59;101628.88;5017544;28;20490;-81
2022/07/18 02:26:50;;;;;;;6.53;3.90;;;;;;;16.98;70.71;101627.25;5017772;28;20080;-84
2022/07/18 02:29:18;;;;;;;6.10;4.00;;;;;;;17.00;70.70;101628.72;5006897;28;20125;-82
2022/07/18 02:31:45;;;;;;;8.50;4.72;;;;;;;16.99;70.98;101621.78;4999525;28;20101;-81
2022/07/18 02:34:12;;;;;;;7.05;4.28;;;;;;;16.95;70.97;101625.75;5004447;28;20114;-82
2022/07/18 02:36:41;;;;;;;7.38;4.90;;;;;;;16.89;71.11;101622.00;5011654;28;20077;-82
2022/07/18 02:39:08;;;;;;;6.22;4.00;;;;;;;16.87;71.20;101618.69;5027228;28;20049;-82
2022/07/18 02:41:35;;;;;;;8.70;4.45;;;;;;;16.82;71.28;101613.09;5028644;28;20053;-82
2022/07/18 02:44:02;;;;;;;8.48;4.15;;;;;;;16.80;71.45;101615.09;5026602;28;20069;-83
2022/07/18 02:46:31;;;;;;;7.88;4.10;;;;;;;16.80;71.09;101617.72;5022932;28;20073;-83
2022/07/18 02:48:57;;;;;;;7.65;3.97;;;;;;;16.77;71.31;101620.72;5022189;28;20053;-82
2022/07/18 02:51:24;;;;;;;7.78;3.95;;;;;;;16.73;71.27;101616.78;5028341;28;20077;-82
2022/07/18 02:53:50;;;;;;;5.60;4.15;;;;;;;16.68;71.26;101610.34;5029676;28;20128;-82
2022/07/18 02:56:17;;;;;;;8.02;3.97;;;;;;;16.68;71.79;101616.47;5029161;28;20053;-83
2022/07/18 02:58:44;;;;;;;6.40;4.20;;;;;;;16.62;71.83;101603.91;5025565;28;20046;-83
2022/07/18 03:01:11;;;;;;;9.23;4.10;;;;;;;16.62;72.67;101619.75;5007128;28;20470;-83
2022/07/18 03:03:39;;;;;;;10.40;4.70;;;;;;;16.61;73.06;101618.09;5008999;28;20050;-83
2022/07/18 03:06:05;;;;;;;7.75;4.03;;;;;;;16.53;73.41;101621.63;5000105;28;20051;-83
2022/07/18 03:08:32;;;;;;;7.90;4.20;;;;;;;16.53;73.41;101618.16;4997613;28;20093;-82
2022/07/18 03:10:59;;;;;;;8.25;4.30;;;;;;;16.56;73.88;101631.00;5003876;28;20042;-82
2022/07/18 03:13:25;;;;;;;10.75;5.05;;;;;;;16.48;74.07;101631.88;5016363;28;20080;-83
2022/07/18 03:15:52;;;;;;;9.25;4.60;;;;;;;16.46;74.37;101630.41;5016005;28;20088;-85
2022/07/18 03:18:19;;;;;;;10.80;4.85;;;;;;;16.38;74.61;101628.59;5014628;28;20042;-84
2022/07/18 03:20:47;;;;;;;9.02;4.57;;;;;;;16.44;74.71;101629.75;5015623;28;20060;-84
2022/07/18 03:23:14;;;;;;;8.93;5.25;;;;;;;16.39;75.09;101634.72;5020612;28;20081;-85
2022/07/18 03:25:40;;;;;;;10.82;4.70;;;;;;;16.32;75.10;101631.91;5014440;28;20052;-85
2022/07/18 03:28:07;;;;;;;9.75;5.10;;;;;;;16.24;75.68;101627.47;5001438;28;20554;-85
2022/07/18 03:30:34;;;;;;;8.52;4.30;;;;;;;16.18;75.82;101622.88;5003426;28;20049;-85
2022/07/18 03:33:00;;;;;;;8.75;4.70;;;;;;;16.15;76.08;101623.19;4964698;28;1145638;-87
2022/07/18 03:35:27;;;;;;;10.38;5.03;;;;;;;16.09;76.38;101576.34;4995525;28;20128;-85
2022/07/18 03:37:58;;;;;;;8.98;5.07;;;;;;;16.05;76.67;101576.88;4995867;28;20078;-85
2022/07/18 03:40:25;;;;;;;8.52;4.70;;;;;;;16.08;76.73;101572.06;4999344;28;20528;-84
2022/07/18 03:42:51;;;;;;;6.95;4.93;;;;;;;16.09;76.90;101580.81;5014993;28;20078;-86
2022/07/18 03:45:18;;;;;;;8.80;5.07;;;;;;;16.06;77.13;101575.88;5014113;28;20052;-85
2022/07/18 03:47:45;;;;;;;11.48;5.50;;;;;;;16.08;76.99;101572.06;5014133;28;20442;-86
2022/07/18 03:50:12;;;;;;;10.50;5.15;;;;;;;15.95;77.58;101569.16;5012093;28;20129;-84
2022/07/18 03:52:38;;;;;;;7.90;5.28;;;;;;;16.00;77.61;101581.84;4995042;28;20089;-86
2022/07/18 03:55:08;;;;;;;9.60;5.35;;;;;;;15.92;77.79;101587.94;4998117;28;20407;-85
2022/07/18 03:57:34;;;;;;;9.85;5.93;;;;;;;15.87;78.18;101577.91;4994595;28;20227;-85
2022/07/18 04:00:01;;;;;;;8.27;5.80;;;;;;;15.92;78.21;101580.84;5007397;28;20085;-85
2022/07/18 04:02:28;;;;;;;9.48;5.30;;;;;;;15.99;78.06;101583.66;5015519;28;20081;-83
2022/07/18 04:04:55;;;;;;;12.30;5.00;;;;;;;16.14;77.42;101587.22;5015015;28;20048;-84
2022/07/18 04:07:21;;;;;;;9.23;5.40;;;;;;;16.38;76.71;101594.25;5010950;28;20104;-84
2022/07/18 04:09:48;;;;;;;8.40;5.43;;;;;;;16.73;75.75;101600.91;4996200;28;20089;-84
2022/07/18 04:12:16;;;;;;;8.77;5.18;;;;;;;16.68;75.06;101597.97;4998014;28;20434;-82
2022/07/18 04:14:43;;;;;;;8.48;5.75;;;;;;;16.59;75.56;101599.78;4999195;28;20085;-84
2022/07/18 04:17:09;;;;;;;10.05;5.53;;;;;;;16.74;74.95;101596.44;5001368;28;20078;-86
2022/07/18 04:19:36;;;;;;;8.50;5.20;;;;;;;16.64;75.13;101586.09;5013689;28;20058;-85
2022/07/18 04:22:03;;;;;;;8.35;5.18;;;;;;;16.59;75.60;101589.22;5012409;28;20128;-85
2022/07/18 04:24:30;;;;;;;13.38;5.82;;;;;;;16.67;75.90;101601.59;5013221;28;20132;-86
2022/07/18 04:26:56;;;;;;;10.35;5.28;;;;;;;16.77;75.44;101596.94;5014105;28;20050;-87
2022/07/18 04:29:27;;;;;;;12.52;5.38;;;;;;;16.98;74.70;101598.16;5014239;28;20057;-85
2022/07/18 04:31:53;;;;;;;11.98;5.20;;;;;;;17.35;73.54;101600.88;5040932;23;20128;-78
2022/07/18 04:34:20;;;;;;;10.05;5.78;;;;;;;17.95;71.47;101584.16;5022337;28;20129;-78
2022/07/18 04:36:47;;;;;;;11.27;5.00;;;;;;;18.31;70.39;101580.78;5015583;28;20482;-80
2022/07/18 04:39:13;;;;;;;8.38;4.63;;;;;;;17.97;70.80;101579.47;4991567;28;20050;-79
2022/07/18 04:41:40;;;;;;;6.07;4.60;;;;;;;17.65;72.18;101580.63;4991507;28;20140;-79
2022/07/18 04:44:07;;;;;;;7.97;4.63;;;;;;;17.45;73.01;101579.47;4991938;28;20137;-78
2022/07/18 04:46:35;;;;;;;9.98;4.65;;;;;;;17.81;72.61;101590.25;5010834;28;20431;-80
2022/07/18 04:49:02;;;;;;;8.70;4.78;;;;;;;17.98;71.67;101593.53;5013834;28;20467;-78
2022/07/18 04:51:30;;;;;;;12.65;5.05;;;;;;;18.14;70.92;101580.13;5014741;28;20097;-79
2022/07/18 04:53:57;;;;;;;10.60;4.80;;;;;;;18.10;70.22;101578.84;5014595;28;20050;-77
2022/07/18 04:56:24;;;;;;;9.95;4.60;;;;;;;18.07;70.39;101569.44;4997891;28;20150;-79
2022/07/18 04:58:50;;;;;;;8.52;4.95;;;;;;;18.06;70.48;101581.03;4991855;28;20082;-78
2022/07/18 05:01:17;;;;;;;7.10;4.68;;;;;;;17.99;70.49;101576.66;4992318;28;20101;-79
2022/07/18 05:03:45;;;;;;;8.00;4.72;;;;;;;17.79;70.65;101563.13;4991876;28;20137;-79
2022/07/18 05:06:12;;;;;;;7.35;4.68;;;;;;;18.08;70.07;101576.38;4994008;28;20081;-79
2022/07/18 05:08:38;;;;;;;9.45;4.72;;;;;;;18.30;68.96;101581.78;5013005;28;20498;-79
2022/07/18 05:11:05;;;;;;;8.40;4.60;;;;;;;18.39;68.71;101573.56;5011580;28;20451;-80
2022/07/18 05:13:32;;;;;;;8.60;4.60;;;;;;;18.46;68.27;101579.75;5015847;28;20089;-79
2022/07/18 05:15:58;;;;;;;13.20;4.88;;;;;;;18.57;67.44;101575.81;5012280;28;20134;-77
2022/07/18 05:18:25;;;;;;;5.35;4.25;;;;;;;18.65;67.55;101572.25;5011302;28;20477;-77
2022/07/18 05:20:54;;;;;;;7.78;4.28;;;;;;;18.69;67.07;101563.75;5011182;28;20089;-79
2022/07/18 05:23:23;;;;;;;8.38;4.35;;;;;;;19.26;65.80;101578.00;5011424;28;20140;-78
2022/07/18 05:25:50;;;;;;;5.88;3.92;;;;;;;19.82;63.52;101584.22;5012607;28;20465;-79
2022/07/18 05:28:17;;;;;;;6.40;3.90;;;;;;;20.57;61.67;101585.28;5011152;28;20081;-77
2022/07/18 05:30:44;;;;;;;6.70;3.90;;;;;;;20.47;60.74;101575.81;5011443;28;20436;-78
2022/07/18 05:33:11;;;;;;;9.05;3.95;;;;;;;20.55;59.98;101574.84;5011387;28;20092;-77
2022/07/18 05:35:38;;;;;;;5.85;3.50;;;;;;;20.51;59.69;101581.56;5014673;28;20422;-80
2022/07/18 05:38:08;;;;;;;7.53;4.15;;;;;;;20.56;59.62;101586.28;5016595;28;20050;-79
2022/07/18 05:40:35;;;;;;;6.22;3.83;;;;;;;20.55;59.22;101572.19;4996483;28;20054;-80
2022/07/18 05:43:02;;;;;;;12.23;3.97;;;;;;;20.49;58.98;101578.28;4994398;28;20486;-78
2022/07/18 05:45:29;;;;;;;7.13;3.72;;;;;;;20.40;58.89;101571.50;4993992;28;20054;-80
2022/07/18 05:47:56;;;;;;;9.15;3.78;;;;;;;20.86;58.16;101582.28;5011153;28;20109;-79
2022/07/18 05:50:24;;;;;;;9.20;3.63;;;;;;;21.23;56.94;101583.66;5020552;28;20076;-80
2022/07/18 05:52:51;;;;;;;8.93;3.60;;;;;;;21.80;55.48;101588.34;5018792;28;20057;-80
2022/07/18 05:55:20;;;;;;;9.40;3.67;;;;;;;23.09;53.66;101603.53;5018786;28;20447;-79
2022/07/18 05:57:46;;;;;;;6.70;3.70;;;;;;;23.35;52.50;101595.31;5021626;28;20081;-80
2022/07/18 06:00:14;;;;;;;6.28;3.70;;;;;;;23.16;52.07;101583.75;5022499;28;20046;-80
2022/07/18 06:02:41;;;;;;;6.97;3.50;;;;;;;23.26;51.70;101585.94;5016869;28;20050;-79
2022/07/18 06:05:10;;;;;;;12.38;3.72;;;;;;;23.46;51.28;101580.44;5033424;28;20417;-77
2022/07/18 06:07:36;;;;;;;10.60;3.35;;;;;;;24.12;50.09;101577.97;5013305;28;20149;-77
2022/07/18 06:10:04;;;;;;;9.90;3.60;;;;;;;23.00;51.44;101567.44;5009301;28;20070;-78
2022/07/18 06:12:32;;;;;;;9.65;3.72;;;;;;;23.99;49.76;101578.13;4995920;28;20082;-77
2022/07/18 06:14:59;;;;;;;6.93;3.75;;;;;;;24.17;49.22;101566.59;4995139;28;20050;-78
2022/07/18 06:17:27;;;;;;;10.60;3.60;;;;;;;24.24;47.92;101569.22;5008791;28;20120;-79
2022/07/18 06:19:54;;;;;;;8.50;3.38;;;;;;;24.97;48.00;101586.03;5013393;28;20399;-79
2022/07/18 06:22:21;;;;;;;5.55;3.30;;;;;;;24.65;46.46;101565.84;5003813;28;20136;-79
2022/07/18 06:24:47;;;;;;;5.18;3.13;;;;;;;23.38;48.72;101560.16;5013350;28;20125;-80
2022/07/18 06:27:14;;;;;;;10.77;3.92;;;;;;;23.94;48.60;101567.28;5011331;28;20092;-78
2022/07/18 06:29:42;;;;;;;9.13;3.30;;;;;;;23.65;48.59;101557.28;5016031;28;20125;-77
2022/07/18 06:32:09;;;;;;;8.25;3.40;;;;;;;23.55;48.52;101552.47;5013594;28;20133;-79
2022/07/18 06:34:35;;;;;;;7.28;3.40;;;;;;;24.33;47.49;101554.53;5012559;28;20137;-78
2022/07/18 06:37:02;;;;;;;5.63;3.05;;;;;;;25.20;46.31;101566.50;5007090;28;20092;-80
2022/07/18 06:39:29;;;;;;;7.75;3.25;;;;;;;25.17;45.00;101553.56;5016533;28;20077;-79
2022/07/18 06:41:55;;;;;;;8.07;3.72;;;;;;;25.35;44.98;101556.16;5020490;28;20057;-80
2022/07/18 06:44:22;;;;;;;7.22;3.22;;;;;;;26.22;42.68;101563.47;5018860;28;20069;-79
2022/07/18 06:46:51;;;;;;;7.35;3.50;;;;;;;26.25;42.97;101576.41;5021437;28;20430;-79
2022/07/18 06:49:18;;;;;;;7.45;3.22;;;;;;;25.52;43.66;101547.44;5022967;28;20045;-79
2022/07/18 06:51:45;;;;;;;5.13;3.22;;;;;;;26.40;43.20;101563.34;5025735;28;20061;-80
2022/07/18 06:54:11;;;;;;;10.73;3.53;;;;;;;26.89;42.27;101563.72;5026842;28;20056;-80
2022/07/18 06:56:38;;;;;;;8.48;3.40;;;;;;;25.73;43.02;101536.16;5025795;28;20426;-82
2022/07/18 06:59:05;;;;;;;8.05;3.55;;;;;;;25.71;43.42;101551.66;5026404;28;20046;-78
2022/07/18 07:01:31;;;;;;;7.40;2.97;;;;;;;26.00;42.53;101553.34;5024242;28;20550;-81
2022/07/18 07:03:59;;;;;;;7.78;3.70;;;;;;;26.29;42.44;101556.09;5017409;28;20078;-80
2022/07/18 07:06:26;;;;;;;9.10;3.55;;;;;;;25.48;43.85;101544.41;5012638;28;20078;-79
2022/07/18 07:08:53;;;;;;;11.20;3.60;;;;;;;25.31;44.28;101538.09;5013677;28;20132;-79
2022/07/18 07:11:21;;;;;;;10.55;3.63;;;;;;;25.72;43.65;101555.97;5014889;28;20092;-79
2022/07/18 07:13:48;;;;;;;10.45;3.33;;;;;;;26.29;42.69;101550.75;5013540;28;20129;-79
2022/07/18 07:16:15;;;;;;;8.82;3.25;;;;;;;26.87;41.74;101565.84;5013266;28;20088;-79
2022/07/18 07:18:41;;;;;;;9.18;3.50;;;;;;;28.27;41.07;101573.66;5012815;28;20135;-78
2022/07/18 07:21:09;;;;;;;6.43;3.47;;;;;;;28.62;39.20;101559.78;5018852;28;20132;-78
2022/07/18 07:23:36;;;;;;;8.85;3.70;;;;;;;26.88;41.67;101537.91;5012754;28;20050;-78
2022/07/18 07:26:03;;;;;;;9.65;3.60;;;;;;;28.04;40.45;101546.97;5013962;28;20544;-78
2022/07/18 07:28:30;;;;;;;8.13;3.45;;;;;;;27.55;40.64;101548.69;5019080;28;20088;-77
2022/07/18 07:30:56;;;;;;;6.72;3.20;;;;;;;27.68;40.23;101538.44;5012382;28;20061;-78
2022/07/18 07:33:23;;;;;;;8.88;3.80;;;;;;;26.98;41.41;101536.22;5012464;28;20056;-79
2022/07/18 07:35:50;;;;;;;6.43;3.40;;;;;;;27.27;41.13;101546.91;5011841;28;20131;-78
2022/07/18 07:38:19;;;;;;;10.65;4.00;;;;;;;27.20;41.50;101530.16;5012442;28;20132;-77
2022/07/18 07:40:46;;;;;;;7.50;3.33;;;;;;;27.73;40.89;101537.69;5010583;28;20058;-78
2022/07/18 07:43:15;;;;;;;6.70;3.20;;;;;;;27.67;40.55;101520.66;5012092;28;20133;-78
2022/07/18 07:45:42;;;;;;;7.10;3.13;;;;;;;29.00;39.94;101537.25;5010985;28;20125;-77
2022/07/18 07:48:09;;;;;;;7.70;3.80;;;;;;;29.28;39.22;101530.75;5011471;28;20313;-78
2022/07/18 07:50:36;;;;;;;5.97;3.05;;;;;;;28.97;38.95;101521.59;5009714;28;20099;-80
2022/07/18 07:53:03;;;;;;;5.03;3.20;;;;;;;29.71;37.75;101529.69;5011898;28;20073;-78
2022/07/18 07:55:31;;;;;;;5.22;3.22;;;;;;;29.21;37.95;101514.00;5009411;28;20081;-78
2022/07/18 07:57:57;;;;;;;8.57;3.50;;;;;;;28.39;40.11;101522.34;4997448;28;20143;-76
2022/07/18 08:00:24;;;;;;;11.25;3.72;;;;;;;29.16;39.35;101529.31;5010955;28;20706;-77
2022/07/18 08:02:53;;;;;;;7.05;3.25;;;;;;;28.97;38.50;101512.72;5010480;28;20550;-78
2022/07/18 08:05:20;;;;;;;6.47;3.35;;;;;;;28.25;40.09;101516.56;5005421;28;20054;-78
2022/07/18 08:07:46;;;;;;;7.60;3.70;;;;;;;28.76;39.45;101521.66;5008906;28;20125;-76
2022/07/18 08:10:13;;;;;;;6.85;2.97;;;;;;;28.51;39.05;101508.75;5006062;28;20134;-75
2022/07/18 08:12:41;;;;;;;12.52;3.85;;;;;;;28.71;39.25;101506.28;5001919;28;20108;-79
2022/07/18 08:15:09;;;;;;;8.05;3.20;;;;;;;29.12;38.56;101515.53;5003872;28;20077;-78
2022/07/18 08:17:36;;;;;;;10.43;3.78;;;;;;;29.65;38.58;101519.94;5009512;28;20052;-80
2022/07/18 08:20:03;;;;;;;13.25;4.47;;;;;;;29.82;37.54;101522.44;5007535;28;20100;-76
2022/07/18 08:22:30;;;;;;;8.35;3.90;;;;;;;30.08;36.91;101512.59;5013116;28;20442;-78
2022/07/18 08:24:57;;;;;;;8.05;3.40;;;;;;;29.54;37.84;101501.28;5010571;28;20074;-77
2022/07/18 08:27:23;;;;;;;10.50;3.38;;;;;;;29.44;37.08;101498.50;5009476;28;20132;-79
2022/07/18 08:29:51;;;;;;;10.15;3.53;;;;;;;29.12;38.37;101493.97;5008215;28;20137;-79
2022/07/18 08:32:18;;;;;;;10.15;3.05;;;;;;;30.77;36.79;101514.91;5008956;28;20162;-78
2022/07/18 08:34:44;;;;;;;8.63;3.63;;;;;;;30.87;35.52;101508.72;5012592;28;20124;-76
2022/07/18 08:37:11;;;;;;;10.02;3.58;;;;;;;31.21;34.74;101528.72;5008947;28;20077;-77
2022/07/18 08:39:38;;;;;;;9.38;3.47;;;;;;;30.91;35.79;101507.09;5012706;28;20128;-78
2022/07/18 08:42:08;;;;;;;8.40;3.33;;;;;;;31.83;35.62;101511.28;5009603;28;20138;-79
2022/07/18 08:44:36;;;;;;;11.85;3.85;;;;;;;31.09;34.83;101516.56;5007236;28;20477;-79
2022/07/18 08:47:06;;;;;;;6.50;3.58;;;;;;;31.13;35.25;101515.78;5007884;28;20125;-79
2022/07/18 08:49:36;;;;;;;9.05;3.53;;;;;;;31.61;34.80;101525.16;5007521;28;20049;-78
2022/07/18 08:52:03;;;;;;;11.20;3.25;;;;;;;32.02;33.97;101529.63;5008285;28;20594;-76
2022/07/18 08:54:30;;;;;;;7.45;3.38;;;;;;;30.83;34.82;101507.63;5004694;28;20092;-77
2022/07/18 08:56:57;;;;;;;7.72;4.13;;;;;;;30.23;35.54;101506.47;5006052;28;20415;-77
2022/07/18 08:59:29;;;;;;;10.32;3.78;;;;;;;30.90;35.00;101502.78;4999827;28;20056;-77
2022/07/18 09:01:56;;;;;;;7.63;3.70;;;;;;;31.26;35.00;101517.09;5009907;28;20050;-76
2022/07/18 09:04:38;;;;;;;10.60;4.03;;;;;;;32.21;33.87;101506.22;5015874;28;20082;-78
2022/07/18 09:07:08;;;;;;;14.65;4.07;;;;;;;32.08;33.99;101499.53;5014630;28;20497;-77
2022/07/18 09:09:35;;;;;;;13.13;4.20;;;;;;;32.28;33.79;101493.22;5013323;28;20133;-78
2022/07/18 09:12:05;;;;;;;8.15;3.83;;;;;;;32.89;33.90;101492.78;5010986;28;20129;-78
2022/07/18 09:14:36;;;;;;;8.18;3.80;;;;;;;31.30;34.54;101481.13;5008704;28;20544;-78
2022/07/18 09:17:06;;;;;;;12.75;3.70;;;;;;;30.26;35.32;101460.00;5005165;28;20133;-77
2022/07/18 09:19:33;;;;;;;10.10;3.75;;;;;;;30.71;35.19;101471.97;5009183;28;20053;-77
2022/07/18 09:22:15;;;;;;;15.63;3.90;;;;;;;31.20;35.36;101469.50;5008574;28;20117;-77
2022/07/18 09:24:53;;;;;;;10.20;4.00;;;;;;;32.16;34.16;101471.03;5011467;28;20048;-77
2022/07/18 09:27:25;;;;;;;9.02;3.50;;;;;;;32.82;33.85;101492.31;5012567;28;20054;-77
2022/07/18 09:30:12;;;;;;;8.20;3.40;;;;;;;32.32;31.98;101499.69;5012758;28;20522;-77
2022/07/18 09:32:40;;;;;;;7.40;3.60;;;;;;;32.12;32.49;101497.09;5012926;28;20129;-75
2022/07/18 09:35:08;;;;;;;8.45;3.80;;;;;;;33.02;31.75;101511.13;5013478;28;20402;-79
2022/07/18 09:37:36;;;;;;;9.20;4.03;;;;;;;32.64;32.31;101502.69;5012608;28;20060;-78
2022/07/18 09:40:17;;;;;;;7.43;3.45;;;;;;;32.86;31.93;101502.28;5013482;28;20073;-77
2022/07/18 09:42:44;;;;;;;6.82;3.33;;;;;;;33.27;31.31;101507.34;5012169;28;20127;-77
2022/07/18 09:45:11;;;;;;;9.80;3.53;;;;;;;33.29;31.58;101522.25;5013595;28;20125;-77
2022/07/18 09:47:59;;;;;;;7.78;3.67;;;;;;;33.55;31.57;101511.16;5013491;28;20048;-77
2022/07/18 09:50:33;;;;;;;10.77;6.57;;;;;;;33.98;30.69;101530.19;5008841;28;20054;-77
2022/07/18 09:53:05;;;;;;;11.30;3.30;;;;;;;33.50;29.65;101522.06;5009383;28;20418;-77
2022/07/18 09:55:31;;;;;;;5.32;3.15;;;;;;;33.41;30.81;101513.72;5012594;28;20478;-76
2022/07/18 09:58:01;;;;;;;9.00;3.28;;;;;;;33.91;29.31;101531.34;5011701;28;20073;-78
2022/07/18 10:00:30;;;;;;;6.40;3.30;;;;;;;33.37;29.39;101523.53;5012850;28;20049;-77
2022/07/18 10:02:58;;;;;;;8.48;3.08;;;;;;;33.55;29.93;101511.16;5012855;28;20072;-77
2022/07/18 10:05:27;;;;;;;6.75;3.72;;;;;;;33.32;29.76;101504.59;5012799;28;20073;-77
2022/07/18 10:07:54;;;;;;;4.65;3.25;;;;;;;32.95;30.22;101505.22;5012876;28;20053;-76
2022/07/18 10:10:24;;;;;;;4.65;2.90;;;;;;;32.62;29.48;101507.59;5005022;28;20092;-77
2022/07/18 10:12:52;;;;;;;5.30;3.40;;;;;;;31.76;30.42;101483.69;5005520;28;20057;-78
2022/07/18 10:15:22;;;;;;;6.75;3.10;;;;;;;32.57;30.78;101487.88;4998083;28;20372;-78
2022/07/18 10:17:48;;;;;;;7.93;3.33;;;;;;;32.14;30.11;101492.19;5010294;28;20422;-76
2022/07/18 10:20:15;;;;;;;7.15;3.63;;;;;;;31.32;30.35;101486.25;5001022;28;20088;-77
2022/07/18 10:22:43;;;;;;;6.95;3.30;;;;;;;31.83;30.38;101478.81;5003077;28;20050;-76
2022/07/18 10:25:11;;;;;;;7.65;3.50;;;;;;;32.66;30.70;101492.38;5008888;28;20137;-78
2022/07/18 10:28:03;;;;;;;9.23;3.67;;;;;;;33.10;30.15;101496.91;5011642;28;20046;-77
2022/07/18 10:30:33;;;;;;;9.20;3.90;;;;;;;33.21;29.34;101505.75;5002453;28;20057;-77
2022/07/18 10:33:00;;;;;;;7.47;3.97;;;;;;;32.14;29.63;101489.50;5000857;28;20054;-76
2022/07/18 10:36:02;;;;;;;7.80;3.60;;;;;;;32.72;29.10;101501.28;5009809;28;20077;-77
2022/07/18 10:38:29;;;;;;;8.68;3.88;;;;;;;32.91;29.22;101498.75;5002005;28;20084;-77
2022/07/18 10:41:04;;;;;;;8.05;3.40;;;;;;;32.43;29.07;101503.94;5013671;28;20100;-75
2022/07/18 10:43:41;;;;;;;5.35;3.33;;;;;;;32.44;29.57;101500.16;5010939;28;20620;-77
2022/07/18 10:46:09;;;;;;;5.53;3.60;;;;;;;32.46;30.81;101479.00;5011984;28;20081;-77
2022/07/18 10:49:03;;;;;;;8.43;3.60;;;;;;;33.19;30.44;101488.97;5012030;28;20156;-76
2022/07/18 10:51:34;;;;;;;6.88;3.35;;;;;;;33.40;30.09;101495.03;5012571;28;20129;-78
2022/07/18 10:54:12;;;;;;;6.20;3.38;;;;;;;33.02;30.41;101499.47;5011916;28;20120;-77
2022/07/18 10:57:18;;;;;;;8.02;3.72;;;;;;;33.51;29.95;101482.97;5011763;28;20128;-76
2022/07/18 11:00:07;;;;;;;6.18;3.35;;;;;;;33.90;29.82;101491.72;5007326;28;20137;-76
2022/07/18 11:02:37;;;;;;;6.95;4.03;;;;;;;33.63;29.25;101495.00;5011648;28;20050;-77
2022/07/18 11:05:34;;;;;;;9.80;3.80;;;;;;;33.54;29.08;101480.50;5011287;28;20137;-77
2022/07/18 11:08:18;;;;;;;13.68;4.28;;;;;;;33.56;29.18;101482.88;5010596;28;20058;-78
2022/07/18 11:11:08;;;;;;;5.50;3.33;;;;;;;33.57;29.74;101473.66;5010405;28;20089;-77
2022/07/18 11:13:35;;;;;;;7.60;3.80;;;;;;;33.55;29.08;101484.00;5011458;28;20141;-77
2022/07/18 11:16:06;;;;;;;5.40;3.40;;;;;;;33.36;29.61;101483.13;5007566;28;20141;-77
2022/07/18 11:18:54;;;;;;;5.93;3.17;;;;;;;33.44;30.45;101468.94;5010038;28;20058;-77
2022/07/18 11:21:23;;;;;;;7.32;3.63;;;;;;;33.66;29.09;101471.91;5010994;28;20057;-78
2022/07/18 11:23:52;;;;;;;5.68;3.63;;;;;;;33.30;29.30;101477.75;5010946;28;20284;-77
2022/07/18 11:26:20;;;;;;;7.47;3.40;;;;;;;33.30;29.38;101464.19;5010886;28;20133;-77
2022/07/18 11:28:48;;;;;;;6.10;3.50;;;;;;;33.47;29.30;101469.16;5009677;28;20129;-75
2022/07/18 11:31:16;;;;;;;5.82;2.95;;;;;;;33.51;29.95;101453.13;5011231;28;20049;-77